Time;durP1;ratioP1;P1;durP2;ratioP2;P2;SDS_P1;SDS_P2;PMS_P1;PMS_P2;Temp;Humidity;BMP_temperature;BMP_pressure;BME280_temperature;BME280_humidity;BME280_pressure;Samples;Min_cycle;Max_cycle;Signal;HPM_P1;HPM_P2
2023/04/28 00:02:27;;;;;;;25.05;11.75;;;3.20;99.90;;;;;;25968607;22;20065;-50
2023/04/28 00:12:29;;;;;;;19.02;10.13;;;3.30;99.90;;;;;;25940719;22;20013;-53
2023/04/28 00:22:30;;;;;;;20.77;10.85;;;3.20;99.90;;;;;;25967571;22;20029;-59
2023/04/28 00:32:32;;;;;;;22.17;10.77;;;3.20;99.90;;;;;;25967033;22;20033;-52
2023/04/28 00:42:33;;;;;;;25.25;12.10;;;3.30;99.90;;;;;;25967614;22;20111;-51
2023/04/28 00:52:37;;;;;;;21.70;11.32;;;3.30;99.90;;;;;;25939086;22;20012;-50
2023/04/28 01:02:39;;;;;;;24.60;11.07;;;3.50;99.90;;;;;;25938935;22;20003;-51
2023/04/28 01:12:40;;;;;;;21.27;11.02;;;3.80;99.90;;;;;;25965681;22;20054;-51
2023/04/28 01:22:42;;;;;;;22.23;11.48;;;4.30;99.90;;;;;;25965336;22;20050;-51
2023/04/28 01:32:44;;;;;;;18.08;10.05;;;4.60;99.90;;;;;;25937899;22;20033;-49
2023/04/28 01:42:46;;;;;;;18.73;10.23;;;4.70;99.90;;;;;;25937321;22;20007;-50
2023/04/28 01:52:47;;;;;;;19.38;10.70;;;4.70;99.90;;;;;;25937385;22;20023;-60
2023/04/28 02:02:49;;;;;;;20.48;11.55;;;4.80;99.90;;;;;;25966913;22;20072;-60
2023/04/28 02:12:51;;;;;;;21.25;10.95;;;4.70;99.90;;;;;;25945892;22;20007;-49
2023/04/28 02:22:53;;;;;;;20.23;11.10;;;4.40;99.90;;;;;;25920311;22;20061;-60
2023/04/28 02:32:55;;;;;;;22.92;11.68;;;4.30;99.90;;;;;;25972270;22;20007;-52
2023/04/28 02:42:56;;;;;;;23.92;12.70;;;4.00;99.90;;;;;;25943808;22;20016;-56
2023/04/28 02:52:58;;;;;;;26.50;13.18;;;3.70;99.90;;;;;;25944113;22;20000;-52
2023/04/28 03:03:00;;;;;;;27.48;14.02;;;3.50;99.90;;;;;;25971170;22;20463;-52
2023/04/28 03:13:02;;;;;;;26.98;13.57;;;3.40;99.90;;;;;;25943707;22;20008;-49
2023/04/28 03:23:04;;;;;;;25.48;13.40;;;3.40;99.90;;;;;;25943227;22;20007;-58
2023/04/28 03:33:06;;;;;;;25.40;12.77;;;3.40;99.90;;;;;;25942875;22;20307;-51
2023/04/28 03:43:08;;;;;;;26.67;14.20;;;3.40;99.90;;;;;;25969299;22;20038;-50
2023/04/28 03:53:16;;;;;;;29.77;14.65;;;3.40;99.90;;;;;;25984224;22;20000;-48
2023/04/28 04:03:20;;;;;;;28.65;13.30;;;3.40;99.90;;;;;;25915777;22;20015;-48
2023/04/28 04:13:22;;;;;;;30.77;14.75;;;3.30;99.90;;;;;;25940636;22;20300;-52
2023/04/28 04:23:25;;;;;;;26.52;13.68;;;3.30;99.90;;;;;;25940124;22;20000;-49
2023/04/28 04:33:27;;;;;;;24.58;12.13;;;3.60;99.90;;;;;;25940035;22;20000;-52
2023/04/28 04:43:29;;;;;;;22.35;11.52;;;4.10;99.90;;;;;;25939212;22;20011;-53
2023/04/28 04:53:31;;;;;;;23.73;11.55;;;4.40;99.90;;;;;;25939428;22;20050;-50
2023/04/28 05:03:33;;;;;;;19.60;10.77;;;4.70;99.90;;;;;;25938708;22;20008;-50
2023/04/28 05:13:34;;;;;;;19.63;10.68;;;5.20;99.90;;;;;;25938706;22;20070;-48
2023/04/28 05:23:38;;;;;;;16.98;9.77;;;5.50;99.90;;;;;;25938275;22;20391;-50
2023/04/28 05:33:39;;;;;;;14.70;8.93;;;5.80;99.90;;;;;;25937725;22;20015;-61
2023/04/28 05:43:41;;;;;;;13.13;8.05;;;6.10;99.90;;;;;;25964092;22;20065;-61
2023/04/28 05:53:47;;;;;;;12.98;7.38;;;6.60;99.90;;;;;;25937332;22;20008;-62
2023/04/28 06:03:51;;;;;;;11.90;7.43;;;7.30;99.90;;;;;;25979184;22;20149;-52
2023/04/28 06:13:53;;;;;;;10.98;7.63;;;8.10;99.90;;;;;;25936338;22;20004;-50
2023/04/28 06:23:55;;;;;;;12.77;7.28;;;8.60;99.90;;;;;;25964167;22;20419;-59
2023/04/28 06:33:57;;;;;;;9.63;6.90;;;8.90;99.90;;;;;;25936851;22;20003;-52
2023/04/28 06:43:59;;;;;;;11.40;6.38;;;9.10;99.90;;;;;;25936301;22;20012;-49
2023/04/28 06:54:04;;;;;;;8.95;5.95;;;9.50;99.90;;;;;;25942577;22;20506;-50
2023/04/28 07:04:06;;;;;;;7.07;4.40;;;9.90;99.90;;;;;;25943783;22;20021;-51
2023/04/28 07:14:07;;;;;;;9.35;4.53;;;10.20;99.90;;;;;;25970673;22;20070;-53
2023/04/28 07:24:09;;;;;;;7.10;3.83;;;10.40;99.90;;;;;;25970446;22;20010;-53
2023/04/28 07:34:11;;;;;;;6.60;4.18;;;10.70;99.90;;;;;;25968530;22;20022;-52
2023/04/28 07:44:12;;;;;;;6.80;3.25;;;10.60;99.90;;;;;;25969128;22;20070;-52
2023/04/28 07:54:14;;;;;;;6.70;3.60;;;10.80;99.90;;;;;;25969031;22;20007;-62
2023/04/28 08:04:16;;;;;;;7.65;3.75;;;11.60;99.90;;;;;;25967995;22;20300;-52
2023/04/28 08:14:20;;;;;;;7.78;4.00;;;11.80;99.90;;;;;;25969290;22;20003;-62
2023/04/28 08:24:21;;;;;;;6.38;3.47;;;11.70;99.90;;;;;;25940792;22;20014;-63
2023/04/28 08:34:23;;;;;;;8.00;4.18;;;12.20;99.90;;;;;;25939616;22;20004;-52
2023/04/28 08:44:25;;;;;;;7.63;4.18;;;13.00;99.90;;;;;;25967352;22;20012;-57
2023/04/28 08:54:30;;;;;;;4.82;3.22;;;13.70;99.90;;;;;;25966240;22;20078;-63
2023/04/28 09:04:32;;;;;;;7.75;3.50;;;14.10;99.90;;;;;;25936737;22;20141;-62
2023/04/28 09:14:36;;;;;;;6.53;4.32;;;13.90;99.90;;;;;;25964952;22;20000;-61
2023/04/28 09:24:39;;;;;;;8.65;3.75;;;13.70;99.90;;;;;;25964799;22;20004;-62
2023/04/28 09:34:48;;;;;;;8.27;4.13;;;14.00;99.90;;;;;;25964579;22;20045;-51
2023/04/28 09:44:52;;;;;;;7.10;4.13;;;14.70;99.90;;;;;;25980751;22;20030;-49
2023/04/28 09:54:55;;;;;;;9.43;5.13;;;15.50;99.90;;;;;;25964238;22;20008;-50
2023/04/28 10:04:57;;;;;;;11.00;6.20;;;16.40;99.90;;;;;;25963040;22;20026;-62
2023/04/28 10:15:00;;;;;;;10.02;5.60;;;17.10;99.90;;;;;;25936703;22;20058;-51
2023/04/28 10:25:10;;;;;;;10.35;5.97;;;17.50;99.90;;;;;;25966496;22;20019;-51
2023/04/28 10:35:22;;;;;;;9.48;5.50;;;17.70;99.90;;;;;;25971548;22;20342;-62
2023/04/28 10:45:48;;;;;;;10.15;6.22;;;17.80;99.10;;;;;;25986488;22;20015;-62
2023/04/28 10:56:05;;;;;;;10.93;6.43;;;17.80;97.90;;;;;;25944225;22;20528;-62
2023/04/28 11:06:27;;;;;;;10.98;6.55;;;17.60;99.00;;;;;;26013273;22;20007;-51
2023/04/28 11:16:31;;;;;;;8.98;5.57;;;17.50;98.60;;;;;;26012900;22;20323;-61
2023/04/28 11:26:37;;;;;;;9.05;5.85;;;17.30;97.80;;;;;;25970237;22;20061;-49
2023/04/28 11:36:40;;;;;;;10.30;6.47;;;17.40;97.70;;;;;;25968968;22;20007;-56
2023/04/28 11:46:55;;;;;;;14.15;7.07;;;17.50;97.10;;;;;;25969237;22;20485;-48
2023/04/28 11:56:57;;;;;;;11.43;7.93;;;17.30;97.20;;;;;;26010739;22;20014;-52
2023/04/28 12:07:02;;;;;;;10.32;7.72;;;17.40;97.00;;;;;;25967252;22;20004;-64
2023/04/28 12:17:04;;;;;;;11.15;7.63;;;17.30;97.80;;;;;;25967778;22;20003;-64
2023/04/28 12:27:17;;;;;;;11.88;7.75;;;17.40;98.00;;;;;;25967527;22;20012;-65
2023/04/28 12:37:21;;;;;;;12.77;8.10;;;17.60;97.20;;;;;;25967160;22;20292;-65
2023/04/28 12:47:22;;;;;;;11.30;7.85;;;17.60;97.10;;;;;;25965812;22;20061;-51
2023/04/28 12:57:28;;;;;;;11.00;8.00;;;18.10;99.10;;;;;;25966000;22;20430;-65
2023/04/28 13:07:30;;;;;;;13.15;8.68;;;18.60;95.30;;;;;;25963744;22;20006;-51
2023/04/28 13:17:33;;;;;;;12.05;8.50;;;18.30;95.70;;;;;;25965224;22;20057;-66
2023/04/28 13:27:35;;;;;;;12.93;8.95;;;17.00;97.20;;;;;;25964949;22;20007;-49
2023/04/28 13:37:41;;;;;;;15.48;8.98;;;17.50;98.20;;;;;;25963856;22;20031;-67
2023/04/28 13:47:43;;;;;;;13.55;10.32;;;17.60;94.70;;;;;;25968026;22;20020;-66
2023/04/28 13:57:45;;;;;;;13.30;10.15;;;17.60;97.20;;;;;;25964167;22;20308;-67
2023/04/28 14:07:47;;;;;;;13.50;10.55;;;17.40;97.10;;;;;;25964242;22;20090;-54
2023/04/28 14:17:49;;;;;;;15.52;9.80;;;17.20;95.80;;;;;;25964104;22;20016;-66
2023/04/28 14:27:51;;;;;;;13.07;10.48;;;17.10;96.70;;;;;;25937244;22;20004;-66
2023/04/28 14:37:53;;;;;;;18.20;11.57;;;17.40;96.70;;;;;;25936714;22;20065;-67
2023/04/28 14:47:55;;;;;;;16.63;11.77;;;17.20;94.80;;;;;;25936641;22;20012;-67
2023/04/28 14:57:56;;;;;;;16.70;11.65;;;16.50;97.20;;;;;;25963328;22;20027;-67
2023/04/28 15:07:58;;;;;;;14.60;10.88;;;16.10;96.20;;;;;;25964248;22;20065;-54
2023/04/28 15:18:00;;;;;;;16.90;11.65;;;15.70;95.80;;;;;;25970458;22;20008;-64
2023/04/28 15:28:06;;;;;;;16.42;11.50;;;14.90;97.40;;;;;;25943026;22;20335;-64
2023/04/28 15:38:09;;;;;;;20.35;12.57;;;14.80;97.40;;;;;;25969416;22;20280;-64
2023/04/28 15:48:11;;;;;;;18.25;12.23;;;14.80;97.30;;;;;;25972319;22;20020;-64
2023/04/28 15:58:13;;;;;;;22.92;13.20;;;14.20;98.10;;;;;;25968733;22;20011;-65
2023/04/28 16:08:14;;;;;;;17.02;11.52;;;13.90;98.00;;;;;;25967412;22;20011;-64
2023/04/28 16:18:16;;;;;;;16.35;11.32;;;13.60;98.50;;;;;;25967947;22;20000;-65
2023/04/28 16:28:18;;;;;;;23.17;11.77;;;13.10;99.30;;;;;;25967493;22;20377;-64
2023/04/28 16:38:20;;;;;;;21.40;11.52;;;12.50;99.00;;;;;;25967146;22;20007;-53
2023/04/28 16:48:22;;;;;;;18.30;11.73;;;12.10;99.90;;;;;;25966233;22;20023;-64
2023/04/28 16:58:24;;;;;;;18.95;11.73;;;11.70;99.90;;;;;;25964508;22;20007;-53
2023/04/28 17:08:25;;;;;;;22.33;12.73;;;11.60;99.90;;;;;;25939316;22;20000;-63
2023/04/28 17:18:28;;;;;;;18.35;11.90;;;11.40;99.90;;;;;;25965949;22;20008;-52
2023/04/28 17:28:31;;;;;;;17.95;11.63;;;11.00;99.90;;;;;;25938490;22;20003;-56
2023/04/28 17:38:34;;;;;;;18.92;12.30;;;10.70;99.90;;;;;;25963625;22;20007;-54
2023/04/28 17:48:35;;;;;;;19.17;12.60;;;10.30;99.90;;;;;;25964730;22;20041;-61
2023/04/28 17:58:37;;;;;;;20.50;12.48;;;10.00;99.90;;;;;;25964613;22;20053;-54
2023/04/28 18:08:38;;;;;;;22.10;13.10;;;9.70;99.90;;;;;;25964645;22;20121;-55
2023/04/28 18:18:44;;;;;;;21.95;12.05;;;9.20;99.90;;;;;;25964436;22;20004;-61
2023/04/28 18:28:46;;;;;;;21.77;12.82;;;8.60;99.90;;;;;;25964090;22;20003;-54
2023/04/28 18:38:48;;;;;;;23.67;12.48;;;8.20;99.90;;;;;;25962960;22;20053;-54
2023/04/28 18:48:51;;;;;;;19.23;11.65;;;7.90;99.90;;;;;;25968227;22;20081;-55
2023/04/28 18:58:52;;;;;;;24.63;13.85;;;7.60;99.90;;;;;;25938884;22;20447;-61
2023/04/28 19:08:55;;;;;;;23.60;12.45;;;7.40;99.90;;;;;;25968148;22;20053;-61
2023/04/28 19:18:57;;;;;;;25.23;13.25;;;7.20;99.90;;;;;;25940917;22;20010;-53
2023/04/28 19:29:00;;;;;;;28.40;14.05;;;7.10;99.90;;;;;;25966816;22;20007;-60
2023/04/28 19:39:02;;;;;;;25.40;13.77;;;7.10;99.90;;;;;;25965049;22;20105;-55
2023/04/28 19:49:04;;;;;;;23.85;13.23;;;7.20;99.90;;;;;;25965051;22;20343;-54
2023/04/28 19:59:06;;;;;;;26.15;15.10;;;7.00;99.90;;;;;;25965503;22;19999;-61
2023/04/28 20:09:09;;;;;;;24.85;14.60;;;7.00;99.90;;;;;;25965304;22;20450;-61
2023/04/28 20:19:10;;;;;;;27.27;15.00;;;7.00;99.90;;;;;;25937962;22;20007;-61
2023/04/28 20:29:12;;;;;;;24.42;13.30;;;6.90;99.90;;;;;;25964104;22;20310;-54
2023/04/28 20:39:14;;;;;;;27.92;14.25;;;6.90;99.90;;;;;;25966588;22;20003;-53
2023/04/28 20:49:16;;;;;;;27.20;14.68;;;6.80;99.90;;;;;;26008523;22;20034;-52
2023/04/28 20:59:18;;;;;;;25.13;14.27;;;6.80;99.90;;;;;;25966162;22;20034;-61
2023/04/28 21:09:19;;;;;;;25.00;13.65;;;6.90;99.90;;;;;;25965417;22;20004;-53
2023/04/28 21:19:21;;;;;;;27.38;14.40;;;7.30;99.90;;;;;;25934941;22;20004;-61
2023/04/28 21:29:23;;;;;;;25.08;14.30;;;7.30;99.90;;;;;;25964712;22;20007;-61
2023/04/28 21:39:25;;;;;;;24.98;14.38;;;7.00;99.90;;;;;;25964556;22;20000;-52
2023/04/28 21:49:27;;;;;;;28.23;15.43;;;7.00;99.90;;;;;;26007055;22;20514;-52
2023/04/28 21:59:29;;;;;;;28.33;15.10;;;7.00;99.90;;;;;;25964651;22;20004;-60
2023/04/28 22:09:32;;;;;;;27.75;15.75;;;6.90;99.90;;;;;;25937303;22;20297;-51
2023/04/28 22:19:33;;;;;;;29.27;15.98;;;6.80;99.90;;;;;;25966423;22;20008;-54
2023/04/28 22:29:35;;;;;;;30.55;17.33;;;6.60;99.90;;;;;;25972582;22;20000;-52
2023/04/28 22:39:37;;;;;;;30.23;18.58;;;6.50;99.90;;;;;;25971118;22;20012;-52
2023/04/28 22:49:38;;;;;;;29.98;17.60;;;6.20;99.90;;;;;;25971373;22;20000;-54
2023/04/28 22:59:40;;;;;;;34.25;18.50;;;6.00;99.90;;;;;;25971345;22;20385;-52
2023/04/28 23:09:42;;;;;;;34.20;19.20;;;6.00;99.90;;;;;;25971076;22;20034;-52
2023/04/28 23:19:44;;;;;;;37.20;21.02;;;5.90;99.90;;;;;;25943373;22;20307;-53
2023/04/28 23:29:45;;;;;;;39.95;21.73;;;5.70;99.90;;;;;;25969610;22;20404;-52
2023/04/28 23:39:47;;;;;;;43.65;23.10;;;5.80;99.90;;;;;;25969325;22;20023;-58
2023/04/28 23:49:48;;;;;;;39.35;21.23;;;5.80;99.90;;;;;;25942625;22;20003;-53
2023/04/28 23:59:50;;;;;;;37.33;21.30;;;6.00;99.90;;;;;;25969104;22;20000;-52
